createdAt,value
2023-09-06T00:00:47.519Z,22.71
2023-09-06T00:05:43.684Z,22.67
2023-09-06T00:08:13.604Z,22.65
2023-09-06T00:10:41.828Z,22.62
2023-09-06T00:15:37.667Z,22.55
2023-09-06T00:20:38.307Z,22.49
2023-09-06T00:23:07.259Z,22.46
2023-09-06T00:25:35.051Z,22.43
2023-09-06T00:28:05.717Z,22.39
2023-09-06T00:30:33.187Z,22.33
2023-09-06T00:33:01.647Z,22.28
2023-09-06T00:35:30.519Z,22.26
2023-09-06T00:40:25.186Z,22.22
2023-09-06T00:42:54.468Z,22.18
2023-09-06T00:45:27.761Z,22.18
2023-09-06T00:47:57.478Z,22.16
2023-09-06T00:50:25.445Z,22.14
2023-09-06T00:52:54.895Z,22.15
2023-09-06T00:55:22.559Z,22.13
2023-09-06T00:57:50.606Z,22.14
2023-09-06T01:00:20.856Z,22.14
2023-09-06T01:02:49.345Z,22.11
2023-09-06T01:05:17.828Z,22.09
2023-09-06T01:07:48.557Z,22.02
2023-09-06T01:10:15.912Z,22.02
2023-09-06T01:12:43.358Z,22.03
2023-09-06T01:15:12.641Z,22.01
2023-09-06T01:17:43.397Z,22.02
2023-09-06T01:20:17.494Z,22.02
2023-09-06T01:22:53.495Z,22.00
2023-09-06T01:25:21.283Z,21.97
2023-09-06T01:30:16.457Z,21.95
2023-09-06T01:32:43.675Z,21.93
2023-09-06T01:35:12.164Z,21.92
2023-09-06T01:37:39.509Z,21.87
2023-09-06T01:40:18.070Z,21.86
2023-09-06T01:42:46.521Z,21.83
2023-09-06T01:45:19.009Z,21.79
2023-09-06T01:47:48.434Z,21.76
2023-09-06T01:50:21.580Z,21.71
2023-09-06T01:52:49.279Z,21.68
2023-09-06T01:55:17.062Z,21.68
2023-09-06T01:57:44.369Z,21.63
2023-09-06T02:00:22.520Z,21.63
2023-09-06T02:02:49.789Z,21.60
2023-09-06T02:05:17.421Z,21.53
2023-09-06T02:07:46.524Z,21.46
2023-09-06T02:10:14.068Z,21.43
2023-09-06T02:12:41.491Z,21.41
2023-09-06T02:15:10.000Z,21.40
2023-09-06T02:17:37.267Z,21.41
2023-09-06T02:22:48.739Z,21.45
2023-09-06T02:25:17.822Z,21.47
2023-09-06T02:27:45.293Z,21.51
2023-09-06T02:32:40.024Z,21.54
2023-09-06T02:35:08.764Z,21.53
2023-09-06T02:37:38.006Z,21.52
2023-09-06T02:42:42.929Z,21.50
2023-09-06T02:45:11.284Z,21.48
2023-09-06T02:47:50.285Z,21.48
2023-09-06T02:50:19.947Z,21.46
2023-09-06T02:52:47.688Z,21.46
2023-09-06T02:55:15.480Z,21.44
2023-09-06T02:57:43.479Z,21.42
2023-09-06T03:00:24.129Z,21.40
2023-09-06T03:02:53.864Z,21.39
2023-09-06T03:07:50.090Z,21.37
2023-09-06T03:10:21.500Z,21.34
2023-09-06T03:12:49.912Z,21.32
2023-09-06T03:15:17.243Z,21.30
2023-09-06T03:17:48.563Z,21.30
2023-09-06T03:20:26.734Z,21.27
2023-09-06T03:22:54.215Z,21.25
2023-09-06T03:25:22.009Z,21.20
2023-09-06T03:27:49.736Z,21.16
2023-09-06T03:30:17.092Z,21.08
2023-09-06T03:32:44.633Z,21.08
2023-09-06T03:35:12.443Z,21.06
2023-09-06T03:37:42.943Z,21.05
2023-09-06T03:40:21.572Z,21.06
2023-09-06T03:42:49.153Z,21.07
2023-09-06T03:45:23.029Z,21.08
2023-09-06T03:47:50.745Z,21.07
2023-09-06T03:50:18.201Z,21.08
2023-09-06T03:52:45.494Z,21.04
2023-09-06T03:55:13.244Z,21.04
2023-09-06T03:57:40.564Z,21.03
2023-09-06T04:00:19.882Z,21.02
2023-09-06T04:02:47.417Z,21.02
2023-09-06T04:05:14.782Z,21.00
2023-09-06T04:07:42.055Z,20.98
2023-09-06T04:10:18.046Z,20.98
2023-09-06T04:12:45.658Z,20.98
2023-09-06T04:15:16.133Z,20.95
2023-09-06T04:17:43.545Z,20.95
2023-09-06T04:20:21.117Z,20.96
2023-09-06T04:22:48.923Z,20.98
2023-09-06T04:25:17.149Z,20.95
2023-09-06T04:30:14.867Z,20.91
2023-09-06T04:32:42.484Z,20.89
2023-09-06T04:37:37.810Z,20.86
2023-09-06T04:40:06.587Z,20.86
2023-09-06T04:42:34.060Z,20.85
2023-09-06T04:45:01.288Z,20.84
2023-09-06T04:47:28.612Z,20.84
2023-09-06T04:57:18.350Z,20.81
2023-09-06T04:59:46.331Z,20.77
2023-09-06T05:02:13.646Z,20.74
2023-09-06T05:04:40.969Z,20.71
2023-09-06T05:07:08.144Z,20.71
2023-09-06T05:09:36.271Z,20.72
2023-09-06T05:12:06.242Z,20.70
2023-09-06T05:14:34.129Z,20.69
2023-09-06T05:19:29.434Z,20.69
2023-09-06T05:21:56.918Z,20.70
2023-09-06T05:24:24.195Z,20.71
2023-09-06T05:26:51.553Z,20.73
2023-09-06T05:34:13.023Z,20.78
2023-09-06T05:36:40.462Z,20.82
2023-09-06T05:39:07.841Z,20.85
2023-09-06T05:41:35.534Z,20.86
2023-09-06T05:44:02.889Z,20.91
2023-09-06T05:46:33.694Z,20.92
2023-09-06T05:49:01.615Z,20.92
2023-09-06T05:51:28.977Z,20.93
2023-09-06T05:53:56.328Z,20.93
2023-09-06T05:56:24.118Z,20.94
2023-09-06T05:58:51.394Z,20.92
2023-09-06T06:01:19.523Z,20.94
2023-09-06T06:03:46.979Z,20.94
2023-09-06T06:06:17.910Z,20.95
2023-09-06T06:08:45.352Z,20.95
2023-09-06T06:11:13.422Z,20.96
2023-09-06T06:13:40.954Z,20.97
2023-09-06T06:16:08.442Z,20.98
2023-09-06T06:18:35.716Z,21.00
2023-09-06T06:21:04.380Z,20.99
2023-09-06T06:23:31.969Z,20.99
2023-09-06T06:25:59.389Z,20.97
2023-09-06T06:28:26.693Z,20.98
2023-09-06T06:30:54.117Z,20.97
2023-09-06T06:33:21.645Z,20.97
2023-09-06T06:35:49.140Z,21.00
2023-09-06T06:38:16.643Z,21.02
2023-09-06T06:40:44.047Z,21.02
2023-09-06T06:43:11.491Z,21.03
2023-09-06T06:45:38.750Z,21.05
2023-09-06T06:48:06.808Z,21.09
2023-09-06T06:50:34.365Z,21.09
2023-09-06T06:53:02.148Z,21.07
2023-09-06T06:55:30.549Z,21.05
2023-09-06T06:57:57.989Z,21.04
2023-09-06T07:00:25.600Z,21.06
2023-09-06T07:02:52.978Z,21.09
2023-09-06T07:05:20.383Z,21.13
2023-09-06T07:07:47.977Z,21.14
2023-09-06T07:10:16.916Z,21.21
2023-09-06T07:12:44.281Z,21.23
2023-09-06T07:15:13.098Z,21.27
2023-09-06T07:17:40.576Z,21.29
2023-09-06T07:22:37.271Z,21.38
2023-09-06T07:25:06.473Z,21.39
2023-09-06T07:27:34.064Z,21.43
2023-09-06T07:30:01.415Z,21.44
2023-09-06T07:32:28.404Z,21.48
2023-09-06T07:34:56.059Z,21.48
2023-09-06T07:37:23.488Z,21.49
2023-09-06T07:39:51.034Z,21.49
2023-09-06T07:42:18.665Z,21.51
2023-09-06T07:44:46.380Z,21.54
2023-09-06T07:47:22.114Z,21.55
2023-09-06T07:49:49.885Z,21.58
2023-09-06T07:52:28.043Z,21.63
2023-09-06T07:54:55.766Z,21.66
2023-09-06T07:57:23.057Z,21.66
2023-09-06T08:00:06.927Z,21.71
2023-09-06T08:02:40.509Z,21.75
2023-09-06T08:05:13.293Z,21.74
2023-09-06T08:07:44.501Z,21.74
2023-09-06T08:10:17.149Z,21.79
2023-09-06T08:12:45.757Z,21.83
2023-09-06T08:15:22.214Z,21.81
2023-09-06T08:17:51.016Z,21.88
2023-09-06T08:20:19.201Z,21.88
2023-09-06T08:22:46.844Z,21.90
2023-09-06T08:25:25.651Z,21.90
2023-09-06T08:27:53.475Z,21.90
2023-09-06T08:30:24.632Z,21.92
2023-09-06T08:33:13.472Z,21.95
2023-09-06T08:35:40.502Z,22.00
2023-09-06T08:38:10.684Z,22.07
2023-09-06T08:40:40.128Z,22.10
2023-09-06T08:43:11.752Z,22.13
2023-09-06T08:45:43.448Z,22.18
2023-09-06T08:48:12.298Z,22.28
2023-09-06T08:50:40.659Z,22.36
2023-09-06T08:53:23.199Z,22.41
2023-09-06T08:55:59.477Z,22.46
2023-09-06T08:58:28.665Z,22.50
2023-09-06T09:00:57.343Z,22.56
2023-09-06T09:03:24.803Z,22.65
2023-09-06T09:05:52.387Z,22.69
2023-09-06T09:08:20.003Z,22.75
2023-09-06T09:11:10.190Z,22.81
2023-09-06T09:13:51.600Z,22.87
2023-09-06T09:16:19.148Z,22.93
2023-09-06T09:18:47.458Z,22.99
2023-09-06T09:21:15.551Z,23.05
2023-09-06T09:23:49.117Z,23.10
2023-09-06T09:26:21.407Z,23.15
2023-09-06T09:28:49.130Z,23.20
2023-09-06T09:31:18.184Z,23.27
2023-09-06T09:33:51.672Z,23.31
2023-09-06T09:36:19.946Z,23.34
2023-09-06T09:41:20.148Z,23.46
2023-09-06T09:43:47.635Z,23.53
2023-09-06T09:46:28.176Z,23.59
2023-09-06T09:53:55.450Z,23.85
2023-09-06T09:56:28.036Z,23.85
2023-09-06T09:58:56.899Z,23.90
2023-09-06T10:01:24.267Z,23.96
2023-09-06T10:03:57.149Z,24.00
2023-09-06T10:06:28.338Z,24.07
2023-09-06T10:08:58.962Z,24.11
2023-09-06T10:11:31.309Z,24.18
2023-09-06T10:14:12.426Z,24.25
2023-09-06T10:16:42.483Z,24.29
2023-09-06T10:20:00.906Z,24.35
2023-09-06T10:22:23.541Z,24.45
2023-09-06T10:24:54.088Z,24.49
2023-09-06T10:27:21.720Z,24.54
2023-09-06T10:30:03.901Z,24.60
2023-09-06T10:32:43.340Z,24.68
2023-09-06T10:35:17.324Z,24.69
2023-09-06T10:37:50.787Z,24.76
2023-09-06T10:40:20.448Z,24.80
2023-09-06T10:42:47.804Z,24.84
2023-09-06T10:45:15.734Z,24.90
2023-09-06T10:47:44.122Z,24.94
2023-09-06T10:50:14.013Z,25.00
2023-09-06T10:52:42.886Z,25.05
2023-09-06T10:55:22.526Z,25.10
2023-09-06T10:57:53.880Z,25.15
2023-09-06T11:00:27.142Z,25.20
2023-09-06T11:03:01.221Z,25.28
2023-09-06T11:05:34.230Z,25.34
2023-09-06T11:08:02.130Z,25.40
2023-09-06T11:10:38.887Z,25.44
2023-09-06T11:13:11.849Z,25.51
2023-09-06T11:15:42.326Z,25.55
2023-09-06T11:18:10.974Z,25.60
2023-09-06T11:20:39.264Z,25.65
2023-09-06T11:23:06.937Z,25.70
2023-09-06T11:25:34.785Z,25.75
2023-09-06T11:28:16.133Z,25.80
2023-09-06T11:30:46.272Z,25.88
2023-09-06T11:33:14.294Z,25.96
2023-09-06T11:35:53.197Z,26.03
2023-09-06T11:38:26.789Z,26.08
2023-09-06T11:40:54.966Z,26.14
2023-09-06T11:43:25.797Z,26.17
2023-09-06T11:45:55.339Z,26.21
2023-09-06T11:48:29.377Z,26.27
2023-09-06T11:51:01.096Z,26.31
2023-09-06T11:53:29.037Z,26.37
2023-09-06T11:56:01.347Z,26.41
2023-09-06T11:58:31.426Z,26.47
2023-09-06T12:01:03.087Z,26.54
2023-09-06T12:03:35.606Z,26.60
2023-09-06T12:06:05.193Z,26.68
2023-09-06T12:08:35.528Z,26.67
2023-09-06T12:11:07.891Z,26.68
2023-09-06T12:13:37.296Z,26.70
2023-09-06T12:16:07.428Z,26.73
2023-09-06T12:18:37.384Z,26.77
2023-09-06T12:21:06.565Z,26.83
2023-09-06T12:23:37.949Z,26.88
2023-09-06T12:26:07.340Z,26.95
2023-09-06T12:28:35.623Z,26.95
2023-09-06T12:31:15.293Z,26.98
2023-09-06T12:33:47.157Z,27.07
2023-09-06T12:36:18.783Z,27.13
2023-09-06T12:38:46.803Z,27.18
2023-09-06T12:41:14.566Z,27.20
2023-09-06T12:43:42.061Z,27.22
2023-09-06T12:46:10.323Z,27.25
2023-09-06T12:48:38.160Z,27.28
2023-09-06T12:51:08.232Z,27.34
2023-09-06T12:53:36.228Z,27.38
2023-09-06T12:56:04.757Z,27.44
2023-09-06T12:58:32.862Z,27.47
2023-09-06T13:01:02.119Z,27.47
2023-09-06T13:03:29.922Z,27.48
2023-09-06T13:06:00.177Z,27.49
2023-09-06T13:08:27.878Z,27.53
2023-09-06T13:10:56.203Z,27.58
2023-09-06T13:13:24.730Z,27.62
2023-09-06T13:15:52.507Z,27.62
2023-09-06T13:18:21.750Z,27.64
2023-09-06T13:20:51.102Z,27.67
2023-09-06T13:23:18.689Z,27.69
2023-09-06T13:25:46.352Z,27.72
2023-09-06T13:28:13.991Z,27.78
2023-09-06T13:30:41.662Z,27.83
2023-09-06T13:33:09.392Z,27.86
2023-09-06T13:35:37.056Z,27.90
2023-09-06T13:38:05.050Z,27.93
2023-09-06T13:40:32.802Z,27.97
2023-09-06T13:43:08.618Z,28.01
2023-09-06T13:45:36.759Z,28.08
2023-09-06T13:48:05.300Z,28.11
2023-09-06T13:50:33.006Z,28.13
2023-09-06T13:53:00.711Z,28.17
2023-09-06T13:55:28.458Z,28.19
2023-09-06T13:57:56.597Z,28.22
2023-09-06T14:00:25.674Z,28.25
2023-09-06T14:02:53.689Z,28.26
2023-09-06T14:05:21.782Z,28.28
2023-09-06T14:07:50.556Z,28.30
2023-09-06T14:10:18.589Z,28.32
2023-09-06T14:12:47.393Z,28.32
2023-09-06T14:15:15.031Z,28.32
2023-09-06T14:17:42.741Z,28.32
2023-09-06T14:20:11.495Z,28.32
2023-09-06T14:22:39.087Z,28.34
2023-09-06T14:25:07.355Z,28.39
2023-09-06T14:27:35.061Z,28.41
2023-09-06T14:30:02.840Z,28.43
2023-09-06T14:32:30.282Z,28.43
2023-09-06T14:34:58.234Z,28.45
2023-09-06T14:37:26.670Z,28.47
2023-09-06T14:39:54.419Z,28.51
2023-09-06T14:42:22.212Z,28.55
2023-09-06T14:44:49.982Z,28.57
2023-09-06T14:47:18.174Z,28.57
2023-09-06T14:49:46.489Z,28.59
2023-09-06T14:52:14.720Z,28.60
2023-09-06T14:54:42.652Z,28.62
2023-09-06T14:57:11.645Z,28.62
2023-09-06T14:59:40.276Z,28.62
2023-09-06T15:02:08.909Z,28.64
2023-09-06T15:04:37.109Z,28.64
2023-09-06T15:07:05.479Z,28.65
2023-09-06T15:09:33.417Z,28.66
2023-09-06T15:12:03.228Z,28.67
2023-09-06T15:14:31.781Z,28.67
2023-09-06T15:16:59.952Z,28.66
2023-09-06T15:19:31.347Z,28.64
2023-09-06T15:21:59.064Z,28.62
2023-09-06T15:24:27.389Z,28.61
2023-09-06T15:26:57.067Z,28.62
2023-09-06T15:29:25.392Z,28.62
2023-09-06T15:31:55.634Z,28.63
2023-09-06T15:34:23.517Z,28.66
2023-09-06T15:36:51.568Z,28.65
2023-09-06T15:39:19.335Z,28.66
2023-09-06T15:41:47.466Z,28.68
2023-09-06T15:44:16.027Z,28.69
2023-09-06T15:46:44.865Z,28.69
2023-09-06T15:49:13.666Z,28.71
2023-09-06T15:51:42.065Z,28.71
2023-09-06T15:54:10.875Z,28.69
2023-09-06T15:56:39.330Z,28.70
2023-09-06T15:59:08.990Z,28.70
2023-09-06T16:01:41.030Z,28.66
2023-09-06T16:07:10.379Z,28.69
2023-09-06T16:09:43.967Z,28.70
2023-09-06T16:12:11.596Z,28.68
2023-09-06T16:14:38.927Z,28.67
2023-09-06T16:17:17.514Z,28.68
2023-09-06T16:19:50.501Z,28.70
2023-09-06T16:23:12.289Z,28.69
2023-09-06T16:25:36.301Z,28.68
2023-09-06T16:28:13.848Z,28.67
2023-09-06T16:31:03.168Z,28.64
2023-09-06T16:33:41.619Z,28.59
2023-09-06T16:36:09.090Z,28.55
2023-09-06T16:38:36.830Z,28.52
2023-09-06T16:41:04.466Z,28.50
2023-09-06T16:43:32.230Z,28.49
2023-09-06T16:46:07.541Z,28.47
2023-09-06T16:48:36.182Z,28.44
2023-09-06T16:51:08.679Z,28.44
2023-09-06T16:56:21.622Z,28.44
2023-09-06T16:58:49.720Z,28.41
2023-09-06T17:01:17.435Z,28.40
2023-09-06T17:03:44.532Z,28.41
2023-09-06T17:06:13.551Z,28.42
2023-09-06T17:08:41.590Z,28.43
2023-09-06T17:13:37.971Z,28.42
2023-09-06T17:16:07.459Z,28.39
2023-09-06T17:18:35.816Z,28.39
2023-09-06T17:21:15.698Z,28.37
2023-09-06T17:23:56.945Z,28.36
2023-09-06T17:26:33.021Z,28.33
2023-09-06T17:29:07.468Z,28.32
2023-09-06T17:31:35.919Z,28.28
2023-09-06T17:34:03.882Z,28.23
2023-09-06T17:39:15.361Z,28.17
2023-09-06T17:41:46.461Z,28.15
2023-09-06T17:44:15.623Z,28.10
2023-09-06T17:46:43.299Z,28.06
2023-09-06T17:49:10.949Z,28.02
2023-09-06T17:51:40.529Z,27.97
2023-09-06T17:54:08.136Z,27.92
2023-09-06T17:56:38.477Z,27.87
2023-09-06T17:59:08.877Z,27.82
2023-09-06T18:01:37.624Z,27.80
2023-09-06T18:06:34.338Z,27.74
2023-09-06T18:09:09.174Z,27.71
2023-09-06T18:11:37.630Z,27.68
2023-09-06T18:14:09.572Z,27.63
2023-09-06T18:16:43.887Z,27.59
2023-09-06T18:19:11.311Z,27.55
2023-09-06T18:21:39.164Z,27.52
2023-09-06T18:24:10.720Z,27.48
2023-09-06T18:26:38.359Z,27.44
2023-09-06T18:29:05.900Z,27.42
2023-09-06T18:31:33.486Z,27.41
2023-09-06T18:34:00.649Z,27.40
2023-09-06T18:36:28.292Z,27.39
2023-09-06T18:38:55.692Z,27.37
2023-09-06T18:41:23.006Z,27.36
2023-09-06T18:43:50.653Z,27.34
2023-09-06T18:46:18.155Z,27.32
2023-09-06T18:48:45.367Z,27.28
2023-09-06T18:51:12.805Z,27.26
2023-09-06T18:53:43.436Z,27.24
2023-09-06T18:56:12.881Z,27.21
2023-09-06T18:58:41.255Z,27.17
2023-09-06T19:01:14.950Z,27.13
2023-09-06T19:03:43.522Z,27.09
2023-09-06T19:06:12.268Z,27.05
2023-09-06T19:08:40.757Z,27.03
2023-09-06T19:11:11.233Z,27.01
2023-09-06T19:13:38.772Z,27.01
2023-09-06T19:16:06.436Z,26.98
2023-09-06T19:21:01.329Z,26.92
2023-09-06T19:23:29.030Z,26.92
2023-09-06T19:25:56.898Z,26.88
2023-09-06T19:28:25.245Z,26.86
2023-09-06T19:30:55.596Z,26.83
2023-09-06T19:33:23.365Z,26.83
2023-09-06T19:35:51.292Z,26.81
2023-09-06T19:38:26.090Z,26.81
2023-09-06T19:43:22.460Z,26.79
2023-09-06T19:45:57.874Z,26.75
2023-09-06T19:48:26.667Z,26.74
2023-09-06T19:50:54.782Z,26.74
2023-09-06T19:53:24.931Z,26.74
2023-09-06T19:55:53.425Z,26.72
2023-09-06T19:58:21.030Z,26.70
2023-09-06T20:00:48.716Z,26.65
2023-09-06T20:03:16.217Z,26.61
2023-09-06T20:05:43.972Z,26.60
2023-09-06T20:08:11.807Z,26.55
2023-09-06T20:13:13.070Z,26.50
2023-09-06T20:15:40.486Z,26.46
2023-09-06T20:18:08.387Z,26.45
2023-09-06T20:20:38.766Z,26.44
2023-09-06T20:23:06.368Z,26.39
2023-09-06T20:25:34.520Z,26.36
2023-09-06T20:28:04.250Z,26.31
2023-09-06T20:30:31.617Z,26.28
2023-09-06T20:32:59.489Z,26.26
2023-09-06T20:35:26.931Z,26.23
2023-09-06T20:37:54.333Z,26.25
2023-09-06T20:40:21.810Z,26.23
2023-09-06T20:42:50.787Z,26.21
2023-09-06T20:45:18.124Z,26.19
2023-09-06T20:47:45.426Z,26.17
2023-09-06T20:50:16.208Z,26.15
2023-09-06T20:52:43.607Z,26.13
2023-09-06T20:55:12.249Z,26.10
2023-09-06T20:57:39.568Z,26.07
2023-09-06T21:00:10.767Z,26.03
2023-09-06T21:02:38.577Z,25.99
2023-09-06T21:05:06.423Z,25.96
2023-09-06T21:07:33.889Z,25.93
2023-09-06T21:10:01.146Z,25.91
2023-09-06T21:12:28.734Z,25.89
2023-09-06T21:14:56.093Z,25.83
2023-09-06T21:17:23.486Z,25.82
2023-09-06T21:19:51.344Z,25.78
2023-09-06T21:22:18.560Z,25.75
2023-09-06T21:24:45.870Z,25.71
2023-09-06T21:27:13.431Z,25.64
2023-09-06T21:29:40.665Z,25.63
2023-09-06T21:32:08.170Z,25.59
2023-09-06T21:34:35.462Z,25.57
2023-09-06T21:37:02.915Z,25.53
2023-09-06T21:39:30.273Z,25.47
2023-09-06T21:42:04.906Z,25.44
2023-09-06T21:44:32.263Z,25.40
2023-09-06T21:46:59.632Z,25.38
2023-09-06T21:49:26.809Z,25.36
2023-09-06T21:51:58.278Z,25.32
2023-09-06T21:54:32.634Z,25.28
2023-09-06T21:57:00.373Z,25.28
2023-09-06T21:59:27.528Z,25.26
2023-09-06T22:01:57.174Z,25.26
2023-09-06T22:04:24.503Z,25.19
2023-09-06T22:06:51.842Z,25.12
2023-09-06T22:09:19.124Z,25.10
2023-09-06T22:11:48.766Z,25.07
2023-09-06T22:14:17.616Z,25.02
2023-09-06T22:16:45.837Z,24.98
2023-09-06T22:19:14.649Z,24.94
2023-09-06T22:21:43.019Z,24.89
2023-09-06T22:24:12.092Z,24.87
2023-09-06T22:26:39.309Z,24.84
2023-09-06T22:29:07.065Z,24.85
2023-09-06T22:31:36.227Z,24.83
2023-09-06T22:34:05.511Z,24.79
2023-09-06T22:36:32.689Z,24.78
2023-09-06T22:38:59.880Z,24.76
2023-09-06T22:41:27.170Z,24.74
2023-09-06T22:43:54.588Z,24.70
2023-09-06T22:46:22.067Z,24.67
2023-09-06T22:48:54.803Z,24.66
2023-09-06T22:51:22.764Z,24.59
2023-09-06T22:53:50.388Z,24.53
2023-09-06T22:56:20.504Z,24.50
2023-09-06T22:58:47.693Z,24.47
2023-09-06T23:01:14.945Z,24.42
2023-09-06T23:03:44.059Z,24.38
2023-09-06T23:06:12.328Z,24.35
2023-09-06T23:08:45.533Z,24.36
2023-09-06T23:11:13.789Z,24.36
2023-09-06T23:13:41.300Z,24.35
2023-09-06T23:16:10.404Z,24.35
2023-09-06T23:18:44.674Z,24.31
2023-09-06T23:21:14.294Z,24.25
2023-09-06T23:23:44.058Z,24.23
2023-09-06T23:26:13.503Z,24.20
2023-09-06T23:28:45.406Z,24.15
2023-09-06T23:31:15.399Z,24.11
2023-09-06T23:33:45.509Z,24.09
2023-09-06T23:36:17.120Z,24.09
2023-09-06T23:38:46.958Z,24.05
2023-09-06T23:41:17.871Z,24.05
2023-09-06T23:43:45.894Z,24.05
2023-09-06T23:46:13.756Z,24.04
2023-09-06T23:48:41.202Z,24.03
2023-09-06T23:51:08.317Z,24.00
2023-09-06T23:53:35.815Z,24.01
2023-09-06T23:56:05.209Z,23.99
2023-09-06T23:58:32.654Z,23.97
